Terminal Aerodrome Forecast
Issued by NWS Charleston, WV

Current Version | Previous Version | Text Only | Print | Product List | Glossary Off
Versions: 1 2 3 4 5 6 7 8 9 10 11 12 13 14 15 16 17 18 19 20 21 22

000
FTUS41 KRLX 111700
TAFCRW
TAF
KCRW 111736Z 1118/1218 00000KT P6SM SCT050
     FM120600 00000KT 5SM BR FEW050
     FM120700 00000KT 2SM BR FEW060
     FM120800 00000KT 1/4SM FG VV001
     FM121000 00000KT 3/4SM BR SCT001
     FM121300 00000KT 3SM BR FEW060
     FM121500 00000KT P6SM FEW050=

USA.gov is the U.S. government's official web portal to all federal, state and local government web resources and services.